createdAt,value
2024-04-10T00:00:11.370Z,0.0
2024-04-10T00:03:52.492Z,0.0
2024-04-10T00:07:25.193Z,0.0
2024-04-10T00:11:13.747Z,0.0
2024-04-10T00:15:46.282Z,0.0
2024-04-10T00:19:29.189Z,0.0
2024-04-10T00:22:53.727Z,0.0
2024-04-10T00:26:21.848Z,0.0
2024-04-10T00:29:56.179Z,0.0
2024-04-10T00:34:18.311Z,0.0
2024-04-10T00:38:03.296Z,0.0
2024-04-10T00:41:32.380Z,0.0
2024-04-10T00:45:00.128Z,0.0
2024-04-10T00:48:29.642Z,0.0
2024-04-10T00:51:58.543Z,0.0
2024-04-10T00:55:22.248Z,0.0
2024-04-10T00:58:45.999Z,0.0
2024-04-10T01:02:12.638Z,0.0
2024-04-10T01:05:48.466Z,0.0
2024-04-10T01:09:14.897Z,0.0
2024-04-10T01:12:54.032Z,0.0
2024-04-10T01:16:24.358Z,0.0
2024-04-10T01:19:49.668Z,0.0
2024-04-10T01:23:16.396Z,0.0
2024-04-10T01:26:44.059Z,0.0
2024-04-10T01:30:10.661Z,0.0
2024-04-10T01:33:47.475Z,0.0
2024-04-10T01:37:21.604Z,0.0
2024-04-10T01:45:24.329Z,0.0
2024-04-10T01:50:25.575Z,0.0
2024-04-10T01:54:03.564Z,0.0
2024-04-10T01:57:42.782Z,0.0
2024-04-10T02:04:02.064Z,0.0
2024-04-10T02:07:31.169Z,0.0
2024-04-10T02:11:04.776Z,0.0
2024-04-10T02:14:48.554Z,0.0
2024-04-10T02:18:15.723Z,0.0
2024-04-10T02:27:45.743Z,0.0
2024-04-10T02:31:13.531Z,0.0
2024-04-10T02:35:12.831Z,0.0
2024-04-10T02:39:00.066Z,0.0
2024-04-10T02:42:28.763Z,0.0
2024-04-10T02:46:14.812Z,0.0
2024-04-10T02:49:44.913Z,0.0
2024-04-10T02:53:12.311Z,0.0
2024-04-10T02:56:45.557Z,0.0
2024-04-10T03:00:44.660Z,0.0
2024-04-10T03:04:15.798Z,0.0
2024-04-10T03:07:45.450Z,0.0
2024-04-10T03:11:12.150Z,0.0
2024-04-10T03:14:41.854Z,0.0
2024-04-10T03:18:09.199Z,0.0
2024-04-10T03:21:33.539Z,0.0
2024-04-10T03:25:01.065Z,0.0
2024-04-10T03:28:31.982Z,0.0
2024-04-10T03:31:58.094Z,0.0
2024-04-10T03:35:24.372Z,0.0
2024-04-10T03:39:50.452Z,0.0
2024-04-10T03:43:28.213Z,0.0
2024-04-10T03:46:51.762Z,0.0
2024-04-10T03:50:19.541Z,0.0
2024-04-10T03:53:45.455Z,0.0
2024-04-10T03:57:14.171Z,0.0
2024-04-10T04:05:56.034Z,0.0
2024-04-10T04:09:25.231Z,0.0
2024-04-10T04:13:01.873Z,0.0
2024-04-10T04:16:32.031Z,0.0
2024-04-10T04:19:57.633Z,0.0
2024-04-10T04:25:07.962Z,0.0
2024-04-10T04:28:43.827Z,0.0
2024-04-10T04:32:09.518Z,0.0
2024-04-10T04:38:08.688Z,0.0
2024-04-10T04:41:40.440Z,0.0
2024-04-10T04:45:12.329Z,0.0
2024-04-10T04:48:39.843Z,0.0
2024-04-10T04:52:07.338Z,0.0
2024-04-10T04:55:49.826Z,0.0
2024-04-10T04:59:21.102Z,2.0342281879194637
2024-04-10T05:02:53.445Z,4.875167785234901
2024-04-10T05:06:36.530Z,5.7107382550335535
2024-04-10T05:10:06.609Z,6.169127516778533
2024-04-10T05:13:38.484Z,6.516778523489931
2024-04-10T05:17:04.357Z,7.3765100671140855
2024-04-10T05:20:32.851Z,8.132885906040263
2024-04-10T05:24:04.388Z,9.517449664429526
2024-04-10T05:27:34.224Z,12.210067114093963
2024-04-10T05:30:59.298Z,23.241610738255012
2024-04-10T05:34:40.442Z,20.589932885906038
2024-04-10T05:38:04.090Z,18.615436241610738
2024-04-10T05:46:05.544Z,23.344295302013425
2024-04-10T05:49:31.722Z,21.907382550335548
2024-04-10T05:52:53.467Z,30.96912751677851
2024-04-10T05:56:16.887Z,42.72080536912751
2024-04-10T05:59:55.169Z,46.25234899328858
2024-04-10T06:03:20.857Z,44.26510067114099
2024-04-10T06:06:52.409Z,51.9060402684564
2024-04-10T06:18:58.825Z,54.495302013422815
2024-04-10T06:22:23.920Z,47.806711409395945
2024-04-10T06:25:54.456Z,43.39395973154356
2024-04-10T06:29:18.168Z,43.5040268456376
2024-04-10T06:32:43.303Z,67.93288590604023
2024-04-10T06:36:05.854Z,69.63020134228188
2024-04-10T06:39:34.138Z,41.450335570469804
2024-04-10T06:42:58.122Z,126.03624161073829
2024-04-10T06:46:23.464Z,173.49395973154355
2024-04-10T06:49:51.474Z,180.91476510067108
2024-04-10T06:53:32.546Z,161.17919463087244
2024-04-10T06:57:07.892Z,169.10671140939604
2024-04-10T07:03:18.503Z,153.45637583892616
2024-04-10T07:06:54.583Z,154.27583892617454
2024-04-10T07:10:53.472Z,197.75503355704703
2024-04-10T07:14:33.137Z,229.82550335570465
2024-04-10T07:22:05.838Z,221.63959731543636
2024-04-10T07:25:55.650Z,232.1456375838927
2024-04-10T07:29:26.206Z,221.31610738255017
2024-04-10T07:32:57.048Z,184.7805369127517
2024-04-10T07:36:27.994Z,202.9691275167784
2024-04-10T07:39:52.948Z,297.4006711409399
2024-04-10T07:43:21.882Z,128.63691275167773
2024-04-10T07:49:23.230Z,196.1100671140939
2024-04-10T07:52:49.833Z,163.62416107382566
2024-04-10T07:56:15.841Z,116.43959731543619
2024-04-10T07:59:42.453Z,164.71476510067114
2024-04-10T08:03:12.132Z,251.13154362416103
2024-04-10T08:06:45.136Z,105.90805369127514
2024-04-10T08:13:25.470Z,111.84295302013429
2024-04-10T08:16:47.003Z,89.37651006711411
2024-04-10T08:20:11.424Z,101.85973154362411
2024-04-10T08:23:44.562Z,200.33557046979868
2024-04-10T08:27:08.373Z,409.36979865771826
2024-04-10T08:30:34.577Z,371.14026845637557
2024-04-10T08:34:04.490Z,231.49194630872475
2024-04-10T08:37:30.752Z,172.18724832214758
2024-04-10T08:40:56.856Z,79.29194630872482
2024-04-10T08:47:27.724Z,270.1013422818791
2024-04-10T08:53:54.384Z,292.9080536912751
2024-04-10T08:57:21.207Z,510.80469798657674
2024-04-10T09:00:47.118Z,378.0543624161075
2024-04-10T09:04:09.903Z,496.12348993288623
2024-04-10T09:07:35.086Z,539.7577181208053
2024-04-10T09:10:59.418Z,538.5879194630876
2024-04-10T09:16:30.495Z,349.8053691275166
2024-04-10T09:19:53.064Z,297.4657718120805
2024-04-10T09:23:15.253Z,194.14966442953016
2024-04-10T09:26:39.226Z,191.91610738255025
2024-04-10T09:30:07.500Z,122.99999999999996
2024-04-10T09:33:30.840Z,119.1798657718121
2024-04-10T09:36:54.386Z,154.10067114093948
2024-04-10T09:49:09.277Z,136.7979865771813
2024-04-10T09:52:35.602Z,260.51006711409406
2024-04-10T09:56:00.203Z,131.84228187919464
2024-04-10T09:59:23.971Z,240.9731543624161
2024-04-10T10:02:48.677Z,125.0409395973155
2024-04-10T10:06:10.378Z,499.84429530201356
2024-04-10T10:09:36.648Z,596.1033557046977
2024-04-10T10:12:59.537Z,594.4020134228184
2024-04-10T10:16:23.426Z,565.1496644295299
2024-04-10T10:23:12.933Z,537.4785234899331
2024-04-10T10:26:39.426Z,573.3986577181206
2024-04-10T10:32:51.216Z,604.6288590604021
2024-04-10T10:36:21.267Z,301.37248322147667
2024-04-10T10:39:45.984Z,176.8959731543624
2024-04-10T10:43:11.665Z,484.32953020134244
2024-04-10T10:46:34.884Z,573.5724832214765
2024-04-10T10:50:04.789Z,543.5442953020132
2024-04-10T10:53:35.363Z,527.3657718120803
2024-04-10T10:57:02.783Z,151.05302013422832
2024-04-10T11:00:34.081Z,95.02483221476506
2024-04-10T11:04:06.194Z,144.08456375838927
2024-04-10T11:07:27.688Z,98.18255033557045
2024-04-10T11:10:48.887Z,87.4838926174497
2024-04-10T11:16:19.052Z,279.67986577181193
2024-04-10T11:19:51.012Z,416.38389261744976
2024-04-10T11:23:15.354Z,611.9892617449664
2024-04-10T11:29:28.749Z,162.2617449664429
2024-04-10T11:32:54.229Z,142.92348993288587
2024-04-10T11:36:25.716Z,147.72684563758384
2024-04-10T11:39:51.114Z,214.175167785235
2024-04-10T11:43:21.323Z,260.7932885906041
2024-04-10T11:46:49.747Z,432.00335570469787
2024-04-10T11:54:44.161Z,215.70604026845643
2024-04-10T11:58:10.682Z,194.62416107382546
2024-04-10T12:01:35.739Z,211.56174496644297
2024-04-10T12:05:11.554Z,248.91208053691267
2024-04-10T12:08:42.683Z,245.5885906040268
2024-04-10T12:12:15.758Z,233.86510067114105
2024-04-10T12:15:48.778Z,236.7093959731544
2024-04-10T12:19:29.037Z,196.36375838926176
2024-04-10T12:23:10.577Z,162.04765100671148
2024-04-10T12:26:52.557Z,129.1644295302014
2024-04-10T12:33:56.826Z,282.7718120805368
2024-04-10T12:37:31.951Z,204.81677852348997
2024-04-10T12:41:10.927Z,202.16241610738265
2024-04-10T12:44:51.067Z,199.73087248322145
2024-04-10T12:48:57.805Z,149.49798657718102
2024-04-10T12:52:41.240Z,140.7523489932886
2024-04-10T12:56:18.131Z,178.7610738255033
2024-04-10T12:59:53.125Z,145.42281879194627
2024-04-10T13:03:26.177Z,169.9906040268457
2024-04-10T13:06:55.614Z,125.72818791946307
2024-04-10T13:11:02.184Z,117.13422818791943
2024-04-10T13:14:36.397Z,111.70939597315439
2024-04-10T13:18:06.495Z,98.28456375838934
2024-04-10T13:21:33.367Z,95.36644295302008
2024-04-10T13:25:10.344Z,79.75838926174498
2024-04-10T13:28:49.551Z,79.19597315436246
2024-04-10T13:32:21.273Z,99.59664429530194
2024-04-10T13:35:49.170Z,121.99932885906037
2024-04-10T13:39:18.180Z,161.6798657718122
2024-04-10T13:42:48.335Z,189.5241610738255
2024-04-10T13:46:17.197Z,157.22953020134221
2024-04-10T13:49:40.792Z,143.77382550335568
2024-04-10T13:53:05.107Z,173.04429530201344
2024-04-10T13:57:15.244Z,299.22080536912773
2024-04-10T14:00:42.339Z,143.81744966442952
2024-04-10T14:07:13.666Z,112.29060402684573
2024-04-10T14:10:56.636Z,92.789932885906
2024-04-10T14:14:39.068Z,109.46778523489941
2024-04-10T14:18:05.287Z,87.55637583892614
2024-04-10T14:21:34.013Z,83.30402684563762
2024-04-10T14:25:06.298Z,70.02684563758389
2024-04-10T14:28:40.950Z,62.414765100671126
2024-04-10T14:32:10.047Z,63.94362416107383
2024-04-10T14:35:40.460Z,75.94228187919467
2024-04-10T14:39:14.483Z,119.75167785234899
2024-04-10T14:42:50.752Z,138.91409395973142
2024-04-10T14:48:45.934Z,118.28322147651
2024-04-10T14:52:10.281Z,102.91342281879199
2024-04-10T14:56:10.228Z,99.83825503355699
2024-04-10T14:59:45.098Z,100.51812080536911
2024-04-10T15:03:15.996Z,108.42550335570486
2024-04-10T15:06:43.526Z,96.98053691275176
2024-04-10T15:10:12.169Z,78.80872483221472
2024-04-10T15:16:01.143Z,63.30000000000002
2024-04-10T15:22:37.136Z,63.63624161073826
2024-04-10T15:26:01.200Z,58.06644295302
2024-04-10T15:29:25.494Z,68.01409395973151
2024-04-10T15:32:52.970Z,103.44026845637588
2024-04-10T15:36:27.082Z,104.2590604026846
2024-04-10T15:41:07.776Z,102.91610738255038
2024-04-10T15:46:11.165Z,81.76442953020145
2024-04-10T15:49:34.892Z,54.387248322147634
2024-04-10T15:52:56.049Z,50.432885906040276
2024-04-10T15:56:20.237Z,47.00604026845642
2024-04-10T15:59:42.509Z,40.33489932885906
2024-04-10T16:03:06.201Z,39.585906040268426
2024-04-10T16:06:33.935Z,46.34496644295301
2024-04-10T16:10:02.636Z,53.16979865771811
2024-04-10T16:13:31.994Z,68.19395973154363
2024-04-10T16:17:08.217Z,82.26375838926181
2024-04-10T16:22:49.621Z,46.011409395973146
2024-04-10T16:26:12.678Z,34.81879194630873
2024-04-10T16:29:42.628Z,31.318120805369137
2024-04-10T16:33:08.257Z,28.459731543624155
2024-04-10T16:36:37.002Z,26.063087248322116
2024-04-10T16:40:01.240Z,24.369127516778537
2024-04-10T16:45:03.733Z,23.294630872483232
2024-04-10T16:48:33.520Z,22.602684563758356
2024-04-10T16:52:12.473Z,21.734228187919463
2024-04-10T16:55:40.068Z,20.148993288590603
2024-04-10T17:01:48.135Z,20.5778523489933
2024-04-10T17:05:17.097Z,23.216107382550323
2024-04-10T17:08:40.512Z,23.859060402684545
2024-04-10T17:12:05.502Z,25.591275167785223
2024-04-10T17:15:32.685Z,19.924832214765097
2024-04-10T17:19:04.433Z,15.563758389261741
2024-04-10T17:22:27.670Z,14.214765100671153
2024-04-10T17:25:50.366Z,11.57516778523489
2024-04-10T17:29:21.615Z,10.304697986577176
2024-04-10T17:32:46.102Z,9.831543624161066
2024-04-10T17:36:08.768Z,9.747651006711408
2024-04-10T17:48:07.941Z,7.557718120805378
2024-04-10T18:00:08.097Z,5.2550335570469775
2024-04-10T18:05:20.682Z,3.961744966442952
2024-04-10T18:08:43.794Z,3.0718120805369087
2024-04-10T18:12:07.671Z,2.0744966442953032
2024-04-10T18:15:31.919Z,0.0
2024-04-10T18:19:02.276Z,0.0
2024-04-10T18:22:29.146Z,0.0
2024-04-10T18:25:54.975Z,0.0
2024-04-10T18:31:54.590Z,0.0
2024-04-10T18:35:21.894Z,0.0
2024-04-10T18:38:48.014Z,0.0
2024-04-10T18:42:12.448Z,0.0
2024-04-10T18:45:38.360Z,0.0
2024-04-10T18:49:04.747Z,0.0
2024-04-10T18:53:51.847Z,0.0
2024-04-10T18:57:16.897Z,0.0
2024-04-10T19:00:44.445Z,0.0
2024-04-10T19:04:07.405Z,0.0
2024-04-10T19:08:00.534Z,0.0
2024-04-10T19:11:24.454Z,0.0
2024-04-10T19:14:48.231Z,0.0
2024-04-10T19:18:12.600Z,0.0
2024-04-10T19:21:36.919Z,0.0
2024-04-10T19:24:59.527Z,0.0
2024-04-10T19:28:23.304Z,0.0
2024-04-10T19:31:52.340Z,0.0
2024-04-10T19:35:19.509Z,0.0
2024-04-10T19:38:44.618Z,0.0
2024-04-10T19:42:09.680Z,0.0
2024-04-10T19:45:32.547Z,0.0
2024-04-10T19:48:57.434Z,0.0
2024-04-10T19:56:39.776Z,0.0
2024-04-10T20:01:08.245Z,0.0
2024-04-10T20:04:32.458Z,0.0
2024-04-10T20:07:57.041Z,0.0
2024-04-10T20:11:26.026Z,0.0
2024-04-10T20:14:55.296Z,0.0
2024-04-10T20:18:19.584Z,0.0
2024-04-10T20:25:30.944Z,0.0
2024-04-10T20:28:53.205Z,0.0
2024-04-10T20:32:16.386Z,0.0
2024-04-10T20:35:39.302Z,0.0
2024-04-10T20:39:02.307Z,0.0
2024-04-10T20:42:29.442Z,0.0
2024-04-10T20:49:23.673Z,0.0
2024-04-10T20:52:50.441Z,0.0
2024-04-10T20:56:22.822Z,0.0
2024-04-10T21:08:23.087Z,0.0
2024-04-10T21:11:48.022Z,0.0
2024-04-10T21:15:11.822Z,0.0
2024-04-10T21:18:37.291Z,0.0
2024-04-10T21:25:17.451Z,0.0
2024-04-10T21:28:47.683Z,0.0
2024-04-10T21:32:26.944Z,0.0
2024-04-10T21:35:54.834Z,0.0
2024-04-10T21:39:25.349Z,0.0
2024-04-10T21:44:41.451Z,0.0
2024-04-10T21:48:07.570Z,0.0
2024-04-10T21:54:25.770Z,0.0
2024-04-10T21:57:51.551Z,0.0
2024-04-10T22:03:30.013Z,0.0
2024-04-10T22:09:51.456Z,0.0
2024-04-10T22:13:14.492Z,0.0
2024-04-10T22:16:46.955Z,0.0
2024-04-10T22:20:18.227Z,0.0
2024-04-10T22:23:46.576Z,0.0
2024-04-10T22:27:18.535Z,0.0
2024-04-10T22:30:45.476Z,0.0
2024-04-10T22:34:15.030Z,0.0
2024-04-10T22:37:44.595Z,0.0
2024-04-10T22:41:11.536Z,0.0
2024-04-10T22:44:37.862Z,0.0
2024-04-10T22:48:01.234Z,0.0
2024-04-10T22:51:27.709Z,0.0
2024-04-10T22:54:53.292Z,0.0
2024-04-10T22:58:16.935Z,0.0
2024-04-10T23:01:43.234Z,0.0
2024-04-10T23:05:22.588Z,0.0
2024-04-10T23:09:11.695Z,0.0
2024-04-10T23:12:36.036Z,0.0
2024-04-10T23:16:01.526Z,0.0
2024-04-10T23:19:27.456Z,0.0
2024-04-10T23:22:58.198Z,0.0
2024-04-10T23:26:26.527Z,0.0
2024-04-10T23:30:04.316Z,0.0
2024-04-10T23:33:33.428Z,0.0
2024-04-10T23:38:44.547Z,0.0
2024-04-10T23:42:18.192Z,0.0
2024-04-10T23:45:49.495Z,0.0
2024-04-10T23:49:16.368Z,0.0
2024-04-10T23:52:59.982Z,0.0
2024-04-10T23:57:06.655Z,0.0
